sensor_id;sensor_type;location;lat;lon;timestamp;P1;durP1;ratioP1;P2;durP2;ratioP2
31660;SDS011;18267;52.234;7.444;2023-04-06T00:01:30;6.05;;;4.25;;
31660;SDS011;18267;52.234;7.444;2023-04-06T00:03:55;5.95;;;4.00;;
31660;SDS011;18267;52.234;7.444;2023-04-06T00:06:21;9.55;;;4.03;;
31660;SDS011;18267;52.234;7.444;2023-04-06T00:08:46;5.93;;;3.58;;
31660;SDS011;18267;52.234;7.444;2023-04-06T00:11:12;7.38;;;4.13;;
31660;SDS011;18267;52.234;7.444;2023-04-06T00:13:37;6.53;;;3.75;;
31660;SDS011;18267;52.234;7.444;2023-04-06T00:16:03;5.80;;;3.67;;
31660;SDS011;18267;52.234;7.444;2023-04-06T00:18:30;9.10;;;3.70;;
31660;SDS011;18267;52.234;7.444;2023-04-06T00:20:56;5.20;;;3.78;;
31660;SDS011;18267;52.234;7.444;2023-04-06T00:23:22;5.07;;;3.47;;
31660;SDS011;18267;52.234;7.444;2023-04-06T00:25:47;9.25;;;3.60;;
31660;SDS011;18267;52.234;7.444;2023-04-06T00:28:13;7.78;;;4.18;;
31660;SDS011;18267;52.234;7.444;2023-04-06T00:30:39;3.88;;;3.28;;
31660;SDS011;18267;52.234;7.444;2023-04-06T00:33:05;3.92;;;3.42;;
31660;SDS011;18267;52.234;7.444;2023-04-06T00:35:31;7.47;;;3.88;;
31660;SDS011;18267;52.234;7.444;2023-04-06T00:37:56;6.05;;;3.28;;
31660;SDS011;18267;52.234;7.444;2023-04-06T00:40:22;5.78;;;4.00;;
31660;SDS011;18267;52.234;7.444;2023-04-06T00:42:48;4.18;;;3.55;;
31660;SDS011;18267;52.234;7.444;2023-04-06T00:45:13;5.97;;;3.63;;
31660;SDS011;18267;52.234;7.444;2023-04-06T00:47:39;6.60;;;3.90;;
31660;SDS011;18267;52.234;7.444;2023-04-06T00:50:05;6.55;;;3.47;;
31660;SDS011;18267;52.234;7.444;2023-04-06T00:52:31;4.47;;;3.60;;
31660;SDS011;18267;52.234;7.444;2023-04-06T00:54:56;4.43;;;3.35;;
31660;SDS011;18267;52.234;7.444;2023-04-06T00:57:22;5.78;;;3.58;;
31660;SDS011;18267;52.234;7.444;2023-04-06T00:59:47;8.60;;;3.90;;
31660;SDS011;18267;52.234;7.444;2023-04-06T01:02:13;7.72;;;3.88;;
31660;SDS011;18267;52.234;7.444;2023-04-06T01:04:39;10.27;;;4.32;;
31660;SDS011;18267;52.234;7.444;2023-04-06T01:07:05;5.97;;;3.35;;
31660;SDS011;18267;52.234;7.444;2023-04-06T01:09:31;6.20;;;3.05;;
31660;SDS011;18267;52.234;7.444;2023-04-06T01:11:57;7.43;;;4.15;;
31660;SDS011;18267;52.234;7.444;2023-04-06T01:14:23;4.45;;;3.20;;
31660;SDS011;18267;52.234;7.444;2023-04-06T01:16:49;8.30;;;3.53;;
31660;SDS011;18267;52.234;7.444;2023-04-06T01:19:15;5.15;;;3.45;;
31660;SDS011;18267;52.234;7.444;2023-04-06T01:21:41;5.65;;;3.70;;
31660;SDS011;18267;52.234;7.444;2023-04-06T01:24:07;6.78;;;3.35;;
31660;SDS011;18267;52.234;7.444;2023-04-06T01:26:34;7.38;;;3.85;;
31660;SDS011;18267;52.234;7.444;2023-04-06T01:29:00;8.48;;;3.72;;
31660;SDS011;18267;52.234;7.444;2023-04-06T01:31:27;7.13;;;3.72;;
31660;SDS011;18267;52.234;7.444;2023-04-06T01:33:53;6.55;;;3.80;;
31660;SDS011;18267;52.234;7.444;2023-04-06T01:36:19;5.35;;;3.03;;
31660;SDS011;18267;52.234;7.444;2023-04-06T01:38:45;6.95;;;3.85;;
31660;SDS011;18267;52.234;7.444;2023-04-06T01:41:11;6.50;;;3.75;;
31660;SDS011;18267;52.234;7.444;2023-04-06T01:43:37;5.70;;;3.50;;
31660;SDS011;18267;52.234;7.444;2023-04-06T01:46:03;4.85;;;3.47;;
31660;SDS011;18267;52.234;7.444;2023-04-06T01:48:29;7.40;;;3.80;;
31660;SDS011;18267;52.234;7.444;2023-04-06T01:50:55;6.28;;;3.42;;
31660;SDS011;18267;52.234;7.444;2023-04-06T01:53:20;5.60;;;3.72;;
31660;SDS011;18267;52.234;7.444;2023-04-06T01:55:46;6.07;;;3.35;;
31660;SDS011;18267;52.234;7.444;2023-04-06T01:58:12;5.68;;;3.33;;
31660;SDS011;18267;52.234;7.444;2023-04-06T02:00:38;5.50;;;3.58;;
31660;SDS011;18267;52.234;7.444;2023-04-06T02:03:04;7.47;;;3.80;;
31660;SDS011;18267;52.234;7.444;2023-04-06T02:05:31;11.77;;;3.63;;
31660;SDS011;18267;52.234;7.444;2023-04-06T02:08:02;4.18;;;3.17;;
31660;SDS011;18267;52.234;7.444;2023-04-06T02:10:31;6.10;;;3.20;;
31660;SDS011;18267;52.234;7.444;2023-04-06T02:12:57;11.10;;;3.38;;
31660;SDS011;18267;52.234;7.444;2023-04-06T02:15:23;5.28;;;3.28;;
31660;SDS011;18267;52.234;7.444;2023-04-06T02:17:49;9.40;;;3.72;;
31660;SDS011;18267;52.234;7.444;2023-04-06T02:20:15;7.40;;;4.00;;
31660;SDS011;18267;52.234;7.444;2023-04-06T02:22:40;8.07;;;3.40;;
31660;SDS011;18267;52.234;7.444;2023-04-06T02:25:06;5.97;;;3.58;;
31660;SDS011;18267;52.234;7.444;2023-04-06T02:27:32;6.80;;;3.63;;
31660;SDS011;18267;52.234;7.444;2023-04-06T02:29:58;6.35;;;3.75;;
31660;SDS011;18267;52.234;7.444;2023-04-06T02:32:23;7.25;;;3.90;;
31660;SDS011;18267;52.234;7.444;2023-04-06T02:34:49;4.97;;;3.60;;
31660;SDS011;18267;52.234;7.444;2023-04-06T02:37:15;5.00;;;3.65;;
31660;SDS011;18267;52.234;7.444;2023-04-06T02:39:41;10.65;;;4.05;;
31660;SDS011;18267;52.234;7.444;2023-04-06T02:42:06;6.47;;;3.80;;
31660;SDS011;18267;52.234;7.444;2023-04-06T02:44:33;6.63;;;3.42;;
31660;SDS011;18267;52.234;7.444;2023-04-06T02:46:59;8.18;;;3.70;;
31660;SDS011;18267;52.234;7.444;2023-04-06T02:49:24;6.55;;;3.47;;
31660;SDS011;18267;52.234;7.444;2023-04-06T02:51:50;6.57;;;3.67;;
31660;SDS011;18267;52.234;7.444;2023-04-06T02:54:15;6.25;;;4.07;;
31660;SDS011;18267;52.234;7.444;2023-04-06T02:56:41;5.50;;;3.67;;
31660;SDS011;18267;52.234;7.444;2023-04-06T02:59:07;11.85;;;3.80;;
31660;SDS011;18267;52.234;7.444;2023-04-06T03:01:32;4.30;;;3.60;;
31660;SDS011;18267;52.234;7.444;2023-04-06T03:03:58;5.93;;;3.90;;
31660;SDS011;18267;52.234;7.444;2023-04-06T03:06:23;6.63;;;3.65;;
31660;SDS011;18267;52.234;7.444;2023-04-06T03:08:49;9.02;;;4.43;;
31660;SDS011;18267;52.234;7.444;2023-04-06T03:11:15;8.60;;;4.43;;
31660;SDS011;18267;52.234;7.444;2023-04-06T03:13:40;6.25;;;4.40;;
31660;SDS011;18267;52.234;7.444;2023-04-06T03:16:06;6.40;;;4.00;;
31660;SDS011;18267;52.234;7.444;2023-04-06T03:18:32;6.43;;;4.03;;
31660;SDS011;18267;52.234;7.444;2023-04-06T03:20:57;5.93;;;3.63;;
31660;SDS011;18267;52.234;7.444;2023-04-06T03:23:25;6.18;;;3.50;;
31660;SDS011;18267;52.234;7.444;2023-04-06T03:25:50;7.80;;;3.85;;
31660;SDS011;18267;52.234;7.444;2023-04-06T03:28:16;8.18;;;4.13;;
31660;SDS011;18267;52.234;7.444;2023-04-06T03:30:41;5.68;;;3.55;;
31660;SDS011;18267;52.234;7.444;2023-04-06T03:33:07;6.00;;;3.85;;
31660;SDS011;18267;52.234;7.444;2023-04-06T03:35:32;6.90;;;3.97;;
31660;SDS011;18267;52.234;7.444;2023-04-06T03:37:58;5.70;;;3.97;;
31660;SDS011;18267;52.234;7.444;2023-04-06T03:40:23;5.10;;;4.00;;
31660;SDS011;18267;52.234;7.444;2023-04-06T03:42:49;7.38;;;4.28;;
31660;SDS011;18267;52.234;7.444;2023-04-06T03:45:15;6.13;;;4.28;;
31660;SDS011;18267;52.234;7.444;2023-04-06T03:47:41;6.97;;;4.15;;
31660;SDS011;18267;52.234;7.444;2023-04-06T03:50:06;8.65;;;3.92;;
31660;SDS011;18267;52.234;7.444;2023-04-06T03:52:32;6.32;;;3.90;;
31660;SDS011;18267;52.234;7.444;2023-04-06T03:54:58;6.50;;;4.13;;
31660;SDS011;18267;52.234;7.444;2023-04-06T03:57:23;7.30;;;4.13;;
31660;SDS011;18267;52.234;7.444;2023-04-06T03:59:49;9.00;;;4.47;;
31660;SDS011;18267;52.234;7.444;2023-04-06T04:02:14;6.22;;;3.83;;
31660;SDS011;18267;52.234;7.444;2023-04-06T04:04:40;8.32;;;4.30;;
31660;SDS011;18267;52.234;7.444;2023-04-06T04:07:05;13.27;;;4.47;;
31660;SDS011;18267;52.234;7.444;2023-04-06T04:09:31;7.68;;;3.72;;
31660;SDS011;18267;52.234;7.444;2023-04-06T04:11:56;8.38;;;4.38;;
31660;SDS011;18267;52.234;7.444;2023-04-06T04:14:22;7.55;;;4.05;;
31660;SDS011;18267;52.234;7.444;2023-04-06T04:16:47;8.82;;;4.63;;
31660;SDS011;18267;52.234;7.444;2023-04-06T04:19:13;11.93;;;4.40;;
31660;SDS011;18267;52.234;7.444;2023-04-06T04:21:42;5.55;;;4.13;;
31660;SDS011;18267;52.234;7.444;2023-04-06T04:24:12;8.00;;;4.35;;
31660;SDS011;18267;52.234;7.444;2023-04-06T04:26:38;7.30;;;3.95;;
31660;SDS011;18267;52.234;7.444;2023-04-06T04:29:04;6.57;;;3.67;;
31660;SDS011;18267;52.234;7.444;2023-04-06T04:31:30;4.70;;;3.60;;
31660;SDS011;18267;52.234;7.444;2023-04-06T04:33:56;9.57;;;4.35;;
31660;SDS011;18267;52.234;7.444;2023-04-06T04:36:22;7.65;;;4.70;;
31660;SDS011;18267;52.234;7.444;2023-04-06T04:38:49;7.07;;;4.78;;
31660;SDS011;18267;52.234;7.444;2023-04-06T04:41:15;6.22;;;3.97;;
31660;SDS011;18267;52.234;7.444;2023-04-06T04:43:40;6.97;;;4.30;;
31660;SDS011;18267;52.234;7.444;2023-04-06T04:46:06;9.48;;;4.57;;
31660;SDS011;18267;52.234;7.444;2023-04-06T04:48:31;12.68;;;5.25;;
31660;SDS011;18267;52.234;7.444;2023-04-06T04:50:57;8.27;;;3.67;;
31660;SDS011;18267;52.234;7.444;2023-04-06T04:53:23;16.02;;;4.70;;
31660;SDS011;18267;52.234;7.444;2023-04-06T04:55:48;7.88;;;4.22;;
31660;SDS011;18267;52.234;7.444;2023-04-06T04:58:14;6.22;;;3.85;;
31660;SDS011;18267;52.234;7.444;2023-04-06T05:00:42;7.00;;;4.40;;
31660;SDS011;18267;52.234;7.444;2023-04-06T05:03:07;7.32;;;4.45;;
31660;SDS011;18267;52.234;7.444;2023-04-06T05:05:33;7.70;;;4.25;;
31660;SDS011;18267;52.234;7.444;2023-04-06T05:07:59;15.57;;;5.68;;
31660;SDS011;18267;52.234;7.444;2023-04-06T05:10:25;8.23;;;4.65;;
31660;SDS011;18267;52.234;7.444;2023-04-06T05:12:50;7.70;;;4.03;;
31660;SDS011;18267;52.234;7.444;2023-04-06T05:15:16;8.40;;;5.15;;
31660;SDS011;18267;52.234;7.444;2023-04-06T05:17:41;8.23;;;5.38;;
31660;SDS011;18267;52.234;7.444;2023-04-06T05:20:07;5.50;;;4.55;;
31660;SDS011;18267;52.234;7.444;2023-04-06T05:22:33;8.57;;;4.10;;
31660;SDS011;18267;52.234;7.444;2023-04-06T05:24:59;9.20;;;4.68;;
31660;SDS011;18267;52.234;7.444;2023-04-06T05:27:26;7.07;;;4.57;;
31660;SDS011;18267;52.234;7.444;2023-04-06T05:29:51;7.20;;;4.75;;
31660;SDS011;18267;52.234;7.444;2023-04-06T05:32:17;7.50;;;4.55;;
31660;SDS011;18267;52.234;7.444;2023-04-06T05:34:46;9.60;;;4.95;;
31660;SDS011;18267;52.234;7.444;2023-04-06T05:37:13;8.82;;;5.22;;
31660;SDS011;18267;52.234;7.444;2023-04-06T05:39:39;9.48;;;5.35;;
31660;SDS011;18267;52.234;7.444;2023-04-06T05:42:05;8.57;;;4.57;;
31660;SDS011;18267;52.234;7.444;2023-04-06T05:44:31;11.90;;;5.43;;
31660;SDS011;18267;52.234;7.444;2023-04-06T05:46:57;10.90;;;4.75;;
31660;SDS011;18267;52.234;7.444;2023-04-06T05:49:22;9.30;;;5.05;;
31660;SDS011;18267;52.234;7.444;2023-04-06T05:51:48;10.25;;;5.03;;
31660;SDS011;18267;52.234;7.444;2023-04-06T05:54:13;12.25;;;5.65;;
31660;SDS011;18267;52.234;7.444;2023-04-06T05:56:39;8.23;;;4.78;;
31660;SDS011;18267;52.234;7.444;2023-04-06T05:59:05;11.20;;;5.13;;
31660;SDS011;18267;52.234;7.444;2023-04-06T06:01:30;10.35;;;5.25;;
31660;SDS011;18267;52.234;7.444;2023-04-06T06:03:57;12.88;;;5.57;;
31660;SDS011;18267;52.234;7.444;2023-04-06T06:06:22;9.85;;;5.00;;
31660;SDS011;18267;52.234;7.444;2023-04-06T06:08:48;9.02;;;5.57;;
31660;SDS011;18267;52.234;7.444;2023-04-06T06:11:14;11.00;;;5.90;;
31660;SDS011;18267;52.234;7.444;2023-04-06T06:13:39;11.10;;;5.80;;
31660;SDS011;18267;52.234;7.444;2023-04-06T06:16:05;5.78;;;4.43;;
31660;SDS011;18267;52.234;7.444;2023-04-06T06:18:30;10.15;;;5.30;;
31660;SDS011;18267;52.234;7.444;2023-04-06T06:20:57;12.38;;;4.88;;
31660;SDS011;18267;52.234;7.444;2023-04-06T06:23:22;11.02;;;5.45;;
31660;SDS011;18267;52.234;7.444;2023-04-06T06:25:48;10.82;;;5.15;;
31660;SDS011;18267;52.234;7.444;2023-04-06T06:28:14;12.55;;;5.82;;
31660;SDS011;18267;52.234;7.444;2023-04-06T06:30:39;11.43;;;5.78;;
31660;SDS011;18267;52.234;7.444;2023-04-06T06:33:05;8.55;;;4.82;;
31660;SDS011;18267;52.234;7.444;2023-04-06T06:35:30;10.13;;;5.55;;
31660;SDS011;18267;52.234;7.444;2023-04-06T06:37:56;9.55;;;5.65;;
31660;SDS011;18267;52.234;7.444;2023-04-06T06:40:21;12.23;;;5.63;;
31660;SDS011;18267;52.234;7.444;2023-04-06T06:42:48;11.13;;;5.00;;
31660;SDS011;18267;52.234;7.444;2023-04-06T06:45:15;8.40;;;5.05;;
31660;SDS011;18267;52.234;7.444;2023-04-06T06:47:40;8.50;;;4.88;;
31660;SDS011;18267;52.234;7.444;2023-04-06T06:50:06;11.27;;;6.07;;
31660;SDS011;18267;52.234;7.444;2023-04-06T06:52:32;12.15;;;5.70;;
31660;SDS011;18267;52.234;7.444;2023-04-06T06:54:57;11.73;;;6.05;;
31660;SDS011;18267;52.234;7.444;2023-04-06T06:57:23;10.98;;;5.72;;
31660;SDS011;18267;52.234;7.444;2023-04-06T06:59:48;9.48;;;5.78;;
31660;SDS011;18267;52.234;7.444;2023-04-06T07:02:14;13.18;;;5.85;;
31660;SDS011;18267;52.234;7.444;2023-04-06T07:04:40;8.98;;;5.38;;
31660;SDS011;18267;52.234;7.444;2023-04-06T07:07:05;10.98;;;5.93;;
31660;SDS011;18267;52.234;7.444;2023-04-06T07:09:31;16.17;;;6.53;;
31660;SDS011;18267;52.234;7.444;2023-04-06T07:11:57;13.95;;;6.47;;
31660;SDS011;18267;52.234;7.444;2023-04-06T07:14:22;11.82;;;5.72;;
31660;SDS011;18267;52.234;7.444;2023-04-06T07:16:48;9.55;;;6.45;;
31660;SDS011;18267;52.234;7.444;2023-04-06T07:19:15;10.25;;;5.47;;
31660;SDS011;18267;52.234;7.444;2023-04-06T07:21:40;8.63;;;6.30;;
31660;SDS011;18267;52.234;7.444;2023-04-06T07:24:06;12.02;;;6.75;;
31660;SDS011;18267;52.234;7.444;2023-04-06T07:26:32;9.23;;;5.53;;
31660;SDS011;18267;52.234;7.444;2023-04-06T07:28:57;15.18;;;6.40;;
31660;SDS011;18267;52.234;7.444;2023-04-06T07:31:23;16.98;;;6.90;;
31660;SDS011;18267;52.234;7.444;2023-04-06T07:33:48;11.52;;;6.20;;
31660;SDS011;18267;52.234;7.444;2023-04-06T07:36:14;10.85;;;6.15;;
31660;SDS011;18267;52.234;7.444;2023-04-06T07:38:40;11.90;;;6.35;;
31660;SDS011;18267;52.234;7.444;2023-04-06T07:41:06;11.40;;;6.80;;
31660;SDS011;18267;52.234;7.444;2023-04-06T07:43:31;17.15;;;7.05;;
31660;SDS011;18267;52.234;7.444;2023-04-06T07:45:57;8.48;;;5.70;;
31660;SDS011;18267;52.234;7.444;2023-04-06T07:48:24;21.80;;;7.55;;
31660;SDS011;18267;52.234;7.444;2023-04-06T07:50:49;9.73;;;6.63;;
31660;SDS011;18267;52.234;7.444;2023-04-06T07:53:15;10.57;;;6.82;;
31660;SDS011;18267;52.234;7.444;2023-04-06T07:55:41;8.52;;;6.03;;
31660;SDS011;18267;52.234;7.444;2023-04-06T07:58:06;12.77;;;6.80;;
31660;SDS011;18267;52.234;7.444;2023-04-06T08:00:32;18.23;;;6.93;;
31660;SDS011;18267;52.234;7.444;2023-04-06T08:02:58;17.15;;;6.40;;
31660;SDS011;18267;52.234;7.444;2023-04-06T08:05:24;11.00;;;6.55;;
31660;SDS011;18267;52.234;7.444;2023-04-06T08:07:50;9.63;;;6.10;;
31660;SDS011;18267;52.234;7.444;2023-04-06T08:10:16;11.02;;;6.35;;
31660;SDS011;18267;52.234;7.444;2023-04-06T08:12:42;18.02;;;7.68;;
31660;SDS011;18267;52.234;7.444;2023-04-06T08:15:19;15.98;;;7.18;;
31660;SDS011;18267;52.234;7.444;2023-04-06T08:17:45;13.05;;;7.00;;
31660;SDS011;18267;52.234;7.444;2023-04-06T08:20:12;13.50;;;7.03;;
31660;SDS011;18267;52.234;7.444;2023-04-06T08:23:04;9.68;;;6.32;;
31660;SDS011;18267;52.234;7.444;2023-04-06T08:25:29;14.00;;;6.97;;
31660;SDS011;18267;52.234;7.444;2023-04-06T08:27:55;12.73;;;6.10;;
31660;SDS011;18267;52.234;7.444;2023-04-06T08:30:21;14.00;;;6.93;;
31660;SDS011;18267;52.234;7.444;2023-04-06T08:32:47;12.25;;;6.88;;
31660;SDS011;18267;52.234;7.444;2023-04-06T08:35:14;13.20;;;7.30;;
31660;SDS011;18267;52.234;7.444;2023-04-06T08:37:41;13.70;;;6.90;;
31660;SDS011;18267;52.234;7.444;2023-04-06T08:40:07;11.57;;;6.53;;
31660;SDS011;18267;52.234;7.444;2023-04-06T08:42:33;14.88;;;7.15;;
31660;SDS011;18267;52.234;7.444;2023-04-06T08:45:09;11.85;;;6.80;;
31660;SDS011;18267;52.234;7.444;2023-04-06T08:47:38;23.75;;;6.93;;
31660;SDS011;18267;52.234;7.444;2023-04-06T08:50:04;14.85;;;7.35;;
31660;SDS011;18267;52.234;7.444;2023-04-06T08:52:31;14.00;;;7.20;;
31660;SDS011;18267;52.234;7.444;2023-04-06T08:54:58;13.23;;;7.15;;
31660;SDS011;18267;52.234;7.444;2023-04-06T08:57:24;15.50;;;7.22;;
31660;SDS011;18267;52.234;7.444;2023-04-06T08:59:51;17.60;;;7.97;;
31660;SDS011;18267;52.234;7.444;2023-04-06T09:02:18;18.23;;;7.50;;
31660;SDS011;18267;52.234;7.444;2023-04-06T09:04:52;15.07;;;7.47;;
31660;SDS011;18267;52.234;7.444;2023-04-06T09:07:18;14.18;;;7.45;;
31660;SDS011;18267;52.234;7.444;2023-04-06T09:09:44;11.38;;;6.57;;
31660;SDS011;18267;52.234;7.444;2023-04-06T09:12:22;11.93;;;7.18;;
31660;SDS011;18267;52.234;7.444;2023-04-06T09:14:52;16.02;;;7.78;;
31660;SDS011;18267;52.234;7.444;2023-04-06T09:17:25;11.55;;;7.00;;
31660;SDS011;18267;52.234;7.444;2023-04-06T09:19:52;14.35;;;8.68;;
31660;SDS011;18267;52.234;7.444;2023-04-06T09:22:18;15.85;;;7.80;;
31660;SDS011;18267;52.234;7.444;2023-04-06T09:24:48;17.10;;;8.05;;
31660;SDS011;18267;52.234;7.444;2023-04-06T09:27:15;21.13;;;7.40;;
31660;SDS011;18267;52.234;7.444;2023-04-06T09:29:41;14.35;;;7.50;;
31660;SDS011;18267;52.234;7.444;2023-04-06T09:32:08;21.42;;;8.10;;
31660;SDS011;18267;52.234;7.444;2023-04-06T09:34:41;14.48;;;7.85;;
31660;SDS011;18267;52.234;7.444;2023-04-06T09:39:40;20.02;;;8.50;;
31660;SDS011;18267;52.234;7.444;2023-04-06T09:42:06;15.63;;;8.10;;
31660;SDS011;18267;52.234;7.444;2023-04-06T09:44:31;19.90;;;8.43;;
31660;SDS011;18267;52.234;7.444;2023-04-06T09:46:57;15.95;;;8.52;;
31660;SDS011;18267;52.234;7.444;2023-04-06T09:49:23;13.70;;;7.78;;
31660;SDS011;18267;52.234;7.444;2023-04-06T09:51:56;15.73;;;7.30;;
31660;SDS011;18267;52.234;7.444;2023-04-06T09:54:26;18.52;;;7.97;;
31660;SDS011;18267;52.234;7.444;2023-04-06T09:57:07;18.27;;;8.95;;
31660;SDS011;18267;52.234;7.444;2023-04-06T09:59:44;16.63;;;8.45;;
31660;SDS011;18267;52.234;7.444;2023-04-06T10:08:09;23.52;;;8.80;;
31660;SDS011;18267;52.234;7.444;2023-04-06T10:10:35;15.95;;;8.82;;
31660;SDS011;18267;52.234;7.444;2023-04-06T10:13:01;18.35;;;8.52;;
31660;SDS011;18267;52.234;7.444;2023-04-06T10:15:28;17.70;;;9.68;;
31660;SDS011;18267;52.234;7.444;2023-04-06T10:17:55;19.77;;;9.45;;
31660;SDS011;18267;52.234;7.444;2023-04-06T10:23:37;18.83;;;9.40;;
31660;SDS011;18267;52.234;7.444;2023-04-06T10:26:12;22.70;;;11.07;;
31660;SDS011;18267;52.234;7.444;2023-04-06T10:28:41;20.30;;;10.30;;
31660;SDS011;18267;52.234;7.444;2023-04-06T10:31:08;21.63;;;11.35;;
31660;SDS011;18267;52.234;7.444;2023-04-06T10:33:33;23.35;;;11.52;;
31660;SDS011;18267;52.234;7.444;2023-04-06T10:36:12;22.35;;;11.27;;
31660;SDS011;18267;52.234;7.444;2023-04-06T10:38:39;21.40;;;11.18;;
31660;SDS011;18267;52.234;7.444;2023-04-06T10:41:06;21.40;;;11.30;;
31660;SDS011;18267;52.234;7.444;2023-04-06T10:43:34;20.02;;;10.30;;
31660;SDS011;18267;52.234;7.444;2023-04-06T10:46:02;19.95;;;11.18;;
31660;SDS011;18267;52.234;7.444;2023-04-06T10:49:09;18.02;;;10.88;;
31660;SDS011;18267;52.234;7.444;2023-04-06T10:51:26;17.90;;;10.30;;
31660;SDS011;18267;52.234;7.444;2023-04-06T10:53:53;29.05;;;11.80;;
31660;SDS011;18267;52.234;7.444;2023-04-06T10:56:21;24.30;;;11.65;;
31660;SDS011;18267;52.234;7.444;2023-04-06T10:58:52;21.02;;;11.07;;
31660;SDS011;18267;52.234;7.444;2023-04-06T11:01:21;18.05;;;10.02;;
31660;SDS011;18267;52.234;7.444;2023-04-06T11:03:48;21.67;;;10.93;;
31660;SDS011;18267;52.234;7.444;2023-04-06T11:08:49;20.25;;;11.55;;
31660;SDS011;18267;52.234;7.444;2023-04-06T11:11:16;25.40;;;11.77;;
31660;SDS011;18267;52.234;7.444;2023-04-06T11:16:15;20.30;;;11.32;;
31660;SDS011;18267;52.234;7.444;2023-04-06T11:18:54;25.10;;;11.52;;
31660;SDS011;18267;52.234;7.444;2023-04-06T11:21:38;29.75;;;11.77;;
31660;SDS011;18267;52.234;7.444;2023-04-06T11:29:13;21.08;;;11.77;;
31660;SDS011;18267;52.234;7.444;2023-04-06T11:32:06;23.42;;;11.88;;
31660;SDS011;18267;52.234;7.444;2023-04-06T11:34:35;25.05;;;12.50;;
31660;SDS011;18267;52.234;7.444;2023-04-06T11:37:02;20.23;;;12.25;;
31660;SDS011;18267;52.234;7.444;2023-04-06T11:39:32;23.35;;;12.70;;
31660;SDS011;18267;52.234;7.444;2023-04-06T11:42:20;20.63;;;11.90;;
31660;SDS011;18267;52.234;7.444;2023-04-06T11:44:49;31.13;;;13.27;;
31660;SDS011;18267;52.234;7.444;2023-04-06T11:47:17;23.70;;;12.65;;
31660;SDS011;18267;52.234;7.444;2023-04-06T11:49:44;27.85;;;13.23;;
31660;SDS011;18267;52.234;7.444;2023-04-06T11:52:17;22.90;;;11.50;;
31660;SDS011;18267;52.234;7.444;2023-04-06T11:54:43;25.88;;;12.50;;
31660;SDS011;18267;52.234;7.444;2023-04-06T11:57:08;23.10;;;12.07;;
31660;SDS011;18267;52.234;7.444;2023-04-06T11:59:34;22.30;;;11.95;;
31660;SDS011;18267;52.234;7.444;2023-04-06T12:02:01;21.95;;;10.98;;
31660;SDS011;18267;52.234;7.444;2023-04-06T12:04:28;24.63;;;12.45;;
31660;SDS011;18267;52.234;7.444;2023-04-06T12:06:54;26.10;;;12.75;;
31660;SDS011;18267;52.234;7.444;2023-04-06T12:09:20;24.30;;;11.25;;
31660;SDS011;18267;52.234;7.444;2023-04-06T12:11:45;22.58;;;12.25;;
31660;SDS011;18267;52.234;7.444;2023-04-06T12:14:12;20.58;;;11.60;;
31660;SDS011;18267;52.234;7.444;2023-04-06T12:16:38;18.98;;;11.60;;
31660;SDS011;18267;52.234;7.444;2023-04-06T12:19:04;25.55;;;12.00;;
31660;SDS011;18267;52.234;7.444;2023-04-06T12:21:30;28.67;;;12.70;;
31660;SDS011;18267;52.234;7.444;2023-04-06T12:23:57;22.38;;;11.10;;
31660;SDS011;18267;52.234;7.444;2023-04-06T12:26:24;23.95;;;11.63;;
31660;SDS011;18267;52.234;7.444;2023-04-06T12:28:49;19.88;;;11.48;;
31660;SDS011;18267;52.234;7.444;2023-04-06T12:31:16;24.23;;;12.45;;
31660;SDS011;18267;52.234;7.444;2023-04-06T12:33:42;23.45;;;12.32;;
31660;SDS011;18267;52.234;7.444;2023-04-06T12:36:13;24.77;;;11.60;;
31660;SDS011;18267;52.234;7.444;2023-04-06T12:38:40;27.73;;;11.95;;
31660;SDS011;18267;52.234;7.444;2023-04-06T12:41:06;24.27;;;12.63;;
31660;SDS011;18267;52.234;7.444;2023-04-06T12:43:32;22.27;;;12.25;;
31660;SDS011;18267;52.234;7.444;2023-04-06T12:45:58;21.98;;;12.18;;
31660;SDS011;18267;52.234;7.444;2023-04-06T12:48:27;20.63;;;11.25;;
31660;SDS011;18267;52.234;7.444;2023-04-06T12:50:54;23.88;;;12.50;;
31660;SDS011;18267;52.234;7.444;2023-04-06T12:53:23;19.95;;;12.20;;
31660;SDS011;18267;52.234;7.444;2023-04-06T12:55:49;23.60;;;11.27;;
31660;SDS011;18267;52.234;7.444;2023-04-06T12:58:15;22.70;;;11.25;;
31660;SDS011;18267;52.234;7.444;2023-04-06T13:00:42;28.83;;;12.90;;
31660;SDS011;18267;52.234;7.444;2023-04-06T13:03:08;25.73;;;12.27;;
31660;SDS011;18267;52.234;7.444;2023-04-06T13:05:34;23.52;;;13.10;;
31660;SDS011;18267;52.234;7.444;2023-04-06T13:08:00;20.45;;;12.20;;
31660;SDS011;18267;52.234;7.444;2023-04-06T13:13:47;25.05;;;11.73;;
31660;SDS011;18267;52.234;7.444;2023-04-06T13:16:13;27.10;;;12.82;;
31660;SDS011;18267;52.234;7.444;2023-04-06T13:19:30;22.35;;;12.25;;
31660;SDS011;18267;52.234;7.444;2023-04-06T13:21:56;25.90;;;12.57;;
31660;SDS011;18267;52.234;7.444;2023-04-06T13:24:22;24.73;;;13.40;;
31660;SDS011;18267;52.234;7.444;2023-04-06T13:26:50;21.35;;;12.05;;
31660;SDS011;18267;52.234;7.444;2023-04-06T13:29:21;22.88;;;11.27;;
31660;SDS011;18267;52.234;7.444;2023-04-06T13:32:10;24.67;;;11.70;;
31660;SDS011;18267;52.234;7.444;2023-04-06T13:34:37;26.55;;;11.93;;
31660;SDS011;18267;52.234;7.444;2023-04-06T13:37:02;24.65;;;12.27;;
31660;SDS011;18267;52.234;7.444;2023-04-06T13:39:28;21.83;;;12.15;;
31660;SDS011;18267;52.234;7.444;2023-04-06T13:41:55;23.90;;;12.50;;
31660;SDS011;18267;52.234;7.444;2023-04-06T13:44:21;21.02;;;11.77;;
31660;SDS011;18267;52.234;7.444;2023-04-06T13:46:54;22.38;;;11.85;;
31660;SDS011;18267;52.234;7.444;2023-04-06T13:49:19;20.88;;;11.90;;
31660;SDS011;18267;52.234;7.444;2023-04-06T13:51:45;21.55;;;11.75;;
31660;SDS011;18267;52.234;7.444;2023-04-06T13:54:10;23.02;;;11.82;;
31660;SDS011;18267;52.234;7.444;2023-04-06T13:56:36;24.73;;;12.43;;
31660;SDS011;18267;52.234;7.444;2023-04-06T13:59:02;22.70;;;10.90;;
31660;SDS011;18267;52.234;7.444;2023-04-06T14:01:28;20.63;;;10.73;;
31660;SDS011;18267;52.234;7.444;2023-04-06T14:03:54;23.73;;;12.18;;
31660;SDS011;18267;52.234;7.444;2023-04-06T14:06:19;28.35;;;11.32;;
31660;SDS011;18267;52.234;7.444;2023-04-06T14:08:45;18.88;;;10.68;;
31660;SDS011;18267;52.234;7.444;2023-04-06T14:11:12;20.98;;;11.70;;
31660;SDS011;18267;52.234;7.444;2023-04-06T14:13:38;20.30;;;10.68;;
31660;SDS011;18267;52.234;7.444;2023-04-06T14:16:05;22.55;;;11.45;;
31660;SDS011;18267;52.234;7.444;2023-04-06T14:18:32;22.80;;;11.48;;
31660;SDS011;18267;52.234;7.444;2023-04-06T14:20:59;28.83;;;10.80;;
31660;SDS011;18267;52.234;7.444;2023-04-06T14:23:25;24.27;;;11.30;;
31660;SDS011;18267;52.234;7.444;2023-04-06T14:26:03;20.15;;;10.38;;
31660;SDS011;18267;52.234;7.444;2023-04-06T14:28:31;27.30;;;11.38;;
31660;SDS011;18267;52.234;7.444;2023-04-06T14:30:58;20.30;;;11.40;;
31660;SDS011;18267;52.234;7.444;2023-04-06T14:33:25;21.10;;;11.13;;
31660;SDS011;18267;52.234;7.444;2023-04-06T14:35:51;23.95;;;11.82;;
31660;SDS011;18267;52.234;7.444;2023-04-06T14:38:17;23.17;;;11.75;;
31660;SDS011;18267;52.234;7.444;2023-04-06T14:40:42;25.23;;;11.68;;
31660;SDS011;18267;52.234;7.444;2023-04-06T14:43:08;29.27;;;12.95;;
31660;SDS011;18267;52.234;7.444;2023-04-06T14:45:33;22.45;;;11.90;;
31660;SDS011;18267;52.234;7.444;2023-04-06T14:48:01;22.20;;;11.32;;
31660;SDS011;18267;52.234;7.444;2023-04-06T14:50:27;24.50;;;11.35;;
31660;SDS011;18267;52.234;7.444;2023-04-06T14:52:53;21.40;;;11.40;;
31660;SDS011;18267;52.234;7.444;2023-04-06T14:55:18;23.80;;;12.25;;
31660;SDS011;18267;52.234;7.444;2023-04-06T14:57:44;23.70;;;11.98;;
31660;SDS011;18267;52.234;7.444;2023-04-06T15:00:10;25.88;;;11.52;;